createdAt,value
2019-01-23T00:00:50.392Z,87.37
2019-01-23T00:01:50.366Z,86.94
2019-01-23T00:02:50.350Z,85.91
2019-01-23T00:03:50.340Z,86.66
2019-01-23T00:04:50.360Z,87.30
2019-01-23T00:05:50.322Z,87.37
2019-01-23T00:06:50.305Z,87.90
2019-01-23T00:07:50.324Z,88.32
2019-01-23T00:08:50.291Z,87.58
2019-01-23T00:09:50.297Z,87.47
2019-01-23T00:10:50.300Z,89.03
2019-01-23T00:11:50.332Z,87.75
2019-01-23T00:12:50.287Z,87.32
2019-01-23T00:13:50.237Z,86.90
2019-01-23T00:14:50.252Z,87.68
2019-01-23T00:15:50.211Z,87.37
2019-01-23T00:16:50.212Z,87.37
2019-01-23T00:17:50.200Z,87.47
2019-01-23T00:18:50.184Z,87.37
2019-01-23T00:19:50.169Z,86.94
2019-01-23T00:20:50.162Z,87.43
2019-01-23T00:21:50.174Z,87.43
2019-01-23T00:22:50.147Z,87.12
2019-01-23T00:23:50.142Z,87.54
2019-01-23T00:24:50.117Z,87.75
2019-01-23T00:25:50.098Z,87.01
2019-01-23T00:27:11.147Z,87.43
2019-01-23T00:27:50.087Z,87.22
2019-01-23T00:28:50.109Z,87.43
2019-01-23T00:29:50.057Z,87.26
2019-01-23T00:30:50.052Z,87.22
2019-01-23T00:31:50.062Z,87.32
2019-01-23T00:32:50.041Z,86.90
2019-01-23T00:33:50.033Z,87.22
2019-01-23T00:34:50.011Z,87.54
2019-01-23T00:35:50.015Z,87.43
2019-01-23T00:36:49.986Z,87.54
2019-01-23T00:37:50.002Z,86.72
2019-01-23T00:38:49.967Z,87.32
2019-01-23T00:39:49.959Z,87.22
2019-01-23T00:40:49.941Z,87.05
2019-01-23T00:41:49.953Z,87.58
2019-01-23T00:42:49.930Z,87.22
2019-01-23T00:43:49.936Z,87.22
2019-01-23T00:44:49.897Z,85.98
2019-01-23T00:45:49.889Z,86.41
2019-01-23T00:46:49.888Z,86.62
2019-01-23T00:47:49.872Z,86.34
2019-01-23T00:48:49.882Z,85.77
2019-01-23T00:49:49.846Z,86.13
2019-01-23T00:50:49.835Z,86.24
2019-01-23T00:51:49.840Z,87.51
2019-01-23T00:52:49.814Z,87.40
2019-01-23T00:53:49.805Z,87.30
2019-01-23T00:54:49.806Z,87.68
2019-01-23T00:55:49.786Z,88.89
2019-01-23T00:56:49.771Z,88.75
2019-01-23T00:57:49.796Z,87.40
2019-01-23T00:58:49.751Z,87.15
2019-01-23T00:59:49.751Z,88.47
2019-01-23T01:00:49.727Z,88.43
2019-01-23T01:01:49.721Z,88.79
2019-01-23T01:02:49.744Z,87.62
2019-01-23T01:03:49.715Z,86.98
2019-01-23T01:04:49.721Z,87.51
2019-01-23T01:05:49.668Z,87.51
2019-01-23T01:06:49.673Z,88.15
2019-01-23T01:07:49.655Z,88.04
2019-01-23T01:08:50.595Z,88.75
2019-01-23T01:09:49.640Z,88.11
2019-01-23T01:10:49.631Z,88.00
2019-01-23T01:11:49.637Z,87.08
2019-01-23T01:12:49.603Z,87.51
2019-01-23T01:13:49.589Z,87.08
2019-01-23T01:14:49.594Z,87.19
2019-01-23T01:15:49.601Z,87.23
2019-01-23T01:16:49.567Z,87.40
2019-01-23T01:17:49.546Z,86.59
2019-01-23T01:18:49.564Z,86.59
2019-01-23T01:19:49.528Z,86.70
2019-01-23T01:20:49.513Z,86.59
2019-01-23T01:21:49.518Z,86.63
2019-01-23T01:22:49.494Z,86.52
2019-01-23T01:23:49.483Z,86.10
2019-01-23T01:24:49.479Z,85.99
2019-01-23T01:25:49.480Z,86.63
2019-01-23T01:26:49.465Z,86.42
2019-01-23T01:27:49.451Z,85.93
2019-01-23T01:28:55.834Z,86.03
2019-01-23T01:29:50.419Z,85.93
2019-01-23T01:30:49.404Z,86.67
2019-01-23T01:31:49.426Z,86.88
2019-01-23T01:32:49.408Z,87.20
2019-01-23T01:33:49.374Z,87.52
2019-01-23T01:34:49.369Z,87.41
2019-01-23T01:35:49.358Z,87.52
2019-01-23T01:36:49.344Z,87.41
2019-01-23T01:37:49.342Z,87.84
2019-01-23T01:38:49.348Z,87.31
2019-01-23T01:39:49.309Z,88.16
2019-01-23T01:40:49.308Z,88.27
2019-01-23T01:41:49.310Z,88.80
2019-01-23T01:42:49.298Z,88.16
2019-01-23T01:43:49.261Z,88.48
2019-01-23T01:44:49.259Z,88.59
2019-01-23T01:45:49.262Z,88.69
2019-01-23T01:46:49.233Z,88.80
2019-01-23T01:47:49.252Z,88.06
2019-01-23T01:48:49.214Z,88.27
2019-01-23T01:49:49.201Z,88.06
2019-01-23T01:50:49.189Z,87.52
2019-01-23T01:51:49.181Z,87.31
2019-01-23T01:52:49.186Z,87.52
2019-01-23T01:53:49.170Z,87.63
2019-01-23T01:54:49.145Z,87.52
2019-01-23T01:55:49.153Z,87.63
2019-01-23T01:56:49.127Z,87.31
2019-01-23T01:57:49.113Z,87.10
2019-01-23T01:58:49.164Z,87.46
2019-01-23T01:59:49.107Z,87.03
2019-01-23T02:00:49.083Z,87.46
2019-01-23T02:01:49.085Z,87.41
2019-01-23T02:02:49.063Z,87.63
2019-01-23T02:03:49.054Z,88.37
2019-01-23T02:04:49.097Z,87.63
2019-01-23T02:05:49.034Z,88.06
2019-01-23T02:06:49.020Z,87.52
2019-01-23T02:07:49.013Z,88.01
2019-01-23T02:08:49.002Z,87.52
2019-01-23T02:09:49.063Z,87.91
2019-01-23T02:10:48.985Z,87.59
2019-01-23T02:11:48.961Z,87.63
2019-01-23T02:12:48.963Z,87.41
2019-01-23T02:13:48.957Z,87.63
2019-01-23T02:14:48.957Z,87.52
2019-01-23T02:15:48.941Z,87.20
2019-01-23T02:16:48.918Z,86.67
2019-01-23T02:17:48.899Z,86.77
2019-01-23T02:18:48.891Z,86.14
2019-01-23T02:19:48.906Z,86.49
2019-01-23T02:20:48.887Z,85.96
2019-01-23T02:21:48.878Z,85.53
2019-01-23T02:22:48.859Z,85.04
2019-01-23T02:23:48.831Z,85.11
2019-01-23T02:24:48.830Z,85.64
2019-01-23T02:25:48.819Z,85.68
2019-01-23T02:26:48.826Z,85.64
2019-01-23T02:27:48.825Z,85.36
2019-01-23T02:28:48.817Z,85.79
2019-01-23T02:29:48.789Z,85.47
2019-01-23T02:30:48.963Z,85.04
2019-01-23T02:31:48.776Z,86.21
2019-01-23T02:32:48.756Z,86.00
2019-01-23T02:33:48.748Z,85.58
2019-01-23T02:34:48.748Z,85.36
2019-01-23T02:35:48.710Z,86.00
2019-01-23T02:36:48.698Z,85.89
2019-01-23T02:37:48.698Z,85.89
2019-01-23T02:38:48.681Z,85.68
2019-01-23T02:39:48.694Z,85.47
2019-01-23T02:40:48.682Z,85.11
2019-01-23T02:41:48.654Z,84.90
2019-01-23T02:42:48.697Z,84.05
2019-01-23T02:43:48.645Z,84.36
2019-01-23T02:44:48.617Z,84.58
2019-01-23T02:45:48.627Z,84.36
2019-01-23T02:46:48.600Z,83.98
2019-01-23T02:47:48.580Z,83.34
2019-01-23T02:48:48.592Z,83.55
2019-01-23T02:49:48.583Z,83.23
2019-01-23T02:50:48.549Z,83.16
2019-01-23T02:51:48.551Z,83.48
2019-01-23T02:52:48.530Z,83.44
2019-01-23T02:53:49.369Z,83.55
2019-01-23T02:54:48.510Z,83.76
2019-01-23T02:55:48.499Z,84.01
2019-01-23T02:56:48.497Z,83.91
2019-01-23T02:57:48.497Z,83.48
2019-01-23T02:58:48.455Z,82.84
2019-01-23T02:59:48.515Z,82.95
2019-01-23T03:00:48.458Z,82.98
2019-01-23T03:01:48.436Z,82.95
2019-01-23T03:02:48.437Z,83.80
2019-01-23T03:03:48.409Z,83.59
2019-01-23T03:04:48.447Z,83.59
2019-01-23T03:05:48.392Z,83.80
2019-01-23T03:06:48.411Z,83.62
2019-01-23T03:07:48.374Z,83.41
2019-01-23T03:08:48.365Z,83.31
2019-01-23T03:09:48.387Z,83.73
2019-01-23T03:10:48.332Z,84.01
2019-01-23T03:11:48.330Z,83.95
2019-01-23T03:12:48.326Z,84.16
2019-01-23T03:13:48.310Z,83.41
2019-01-23T03:14:48.321Z,83.52
2019-01-23T03:15:48.322Z,83.20
2019-01-23T03:16:48.270Z,82.98
2019-01-23T03:17:48.275Z,83.09
2019-01-23T03:18:48.249Z,83.09
2019-01-23T03:19:48.272Z,83.62
2019-01-23T03:20:48.264Z,83.31
2019-01-23T03:21:48.232Z,83.13
2019-01-23T03:22:48.205Z,82.67
2019-01-23T03:23:48.210Z,82.45
2019-01-23T03:24:48.190Z,81.60
2019-01-23T03:25:48.208Z,82.24
2019-01-23T03:26:56.134Z,82.34
2019-01-23T03:27:48.185Z,82.28
2019-01-23T03:28:48.140Z,83.34
2019-01-23T03:29:48.162Z,83.45
2019-01-23T03:30:48.125Z,83.56
2019-01-23T03:31:48.151Z,83.45
2019-01-23T03:32:48.119Z,83.66
2019-01-23T03:33:48.094Z,82.42
2019-01-23T03:34:48.085Z,82.20
2019-01-23T03:35:48.074Z,82.53
2019-01-23T03:36:48.061Z,82.63
2019-01-23T03:37:48.113Z,82.63
2019-01-23T03:38:48.040Z,82.14
2019-01-23T03:39:48.072Z,82.03
2019-01-23T03:40:48.027Z,82.35
2019-01-23T03:41:58.991Z,83.03
2019-01-23T03:42:47.991Z,84.09
2019-01-23T03:43:48.005Z,83.78
2019-01-23T03:44:47.972Z,83.67
2019-01-23T03:45:47.959Z,83.67
2019-01-23T03:46:47.997Z,84.09
2019-01-23T03:47:47.958Z,84.42
2019-01-23T03:48:47.991Z,83.78
2019-01-23T03:49:47.963Z,83.67
2019-01-23T03:50:47.913Z,83.56
2019-01-23T03:51:47.900Z,83.35
2019-01-23T03:52:47.918Z,83.81
2019-01-23T03:53:47.886Z,83.81
2019-01-23T03:54:47.884Z,83.81
2019-01-23T03:55:47.882Z,84.99
2019-01-23T03:56:47.852Z,85.20
2019-01-23T03:57:47.837Z,84.67
2019-01-23T03:58:47.835Z,84.77
2019-01-23T03:59:47.845Z,83.85
2019-01-23T04:00:47.801Z,83.85
2019-01-23T04:01:47.806Z,84.77
2019-01-23T04:02:47.799Z,84.67
2019-01-23T04:03:47.774Z,84.99
2019-01-23T04:04:47.763Z,85.10
2019-01-23T04:05:47.774Z,84.45
2019-01-23T04:06:47.758Z,84.67
2019-01-23T04:07:47.744Z,85.10
2019-01-23T04:08:47.720Z,84.88
2019-01-23T04:09:47.702Z,84.77
2019-01-23T04:10:47.738Z,84.06
2019-01-23T04:11:47.687Z,84.17
2019-01-23T04:12:47.692Z,84.06
2019-01-23T04:13:47.681Z,84.70
2019-01-23T04:14:47.668Z,85.13
2019-01-23T04:15:47.639Z,84.92
2019-01-23T04:16:47.636Z,85.24
2019-01-23T04:17:48.520Z,85.13
2019-01-23T04:18:47.616Z,85.03
2019-01-23T04:19:47.600Z,85.24
2019-01-23T04:20:47.592Z,85.77
2019-01-23T04:21:47.627Z,85.88
2019-01-23T04:22:47.577Z,85.03
2019-01-23T04:23:47.587Z,85.52
2019-01-23T04:24:47.556Z,85.10
2019-01-23T04:25:47.572Z,84.88
2019-01-23T04:26:47.567Z,85.10
2019-01-23T04:27:47.655Z,84.67
2019-01-23T04:28:47.549Z,85.20
2019-01-23T04:29:47.502Z,85.10
2019-01-23T04:30:47.498Z,84.56
2019-01-23T04:31:47.503Z,84.56
2019-01-23T04:32:47.482Z,84.24
2019-01-23T04:33:47.459Z,84.13
2019-01-23T04:34:47.447Z,84.03
2019-01-23T04:35:47.453Z,84.13
2019-01-23T04:36:47.431Z,84.24
2019-01-23T04:37:47.429Z,84.03
2019-01-23T04:38:47.444Z,83.81
2019-01-23T04:39:47.397Z,83.81
2019-01-23T04:40:47.379Z,83.81
2019-01-23T04:41:47.381Z,83.81
2019-01-23T04:42:47.409Z,83.17
2019-01-23T04:43:47.342Z,82.75
2019-01-23T04:44:47.367Z,82.78
2019-01-23T04:45:47.336Z,83.21
2019-01-23T04:46:47.347Z,83.64
2019-01-23T04:47:47.313Z,83.42
2019-01-23T04:48:47.325Z,82.64
2019-01-23T04:49:47.292Z,82.85
2019-01-23T04:50:47.280Z,82.24
2019-01-23T04:51:47.298Z,82.67
2019-01-23T04:52:47.261Z,83.64
2019-01-23T04:53:47.259Z,83.74
2019-01-23T04:54:47.269Z,83.64
2019-01-23T04:55:47.243Z,83.14
2019-01-23T04:56:47.247Z,83.74
2019-01-23T04:57:47.212Z,83.78
2019-01-23T04:58:47.221Z,83.78
2019-01-23T04:59:47.220Z,83.78
2019-01-23T05:00:47.170Z,83.71
2019-01-23T05:01:47.165Z,81.85
2019-01-23T05:02:47.163Z,81.35
2019-01-23T05:03:47.126Z,81.35
2019-01-23T05:04:47.131Z,82.35
2019-01-23T05:05:47.186Z,84.03
2019-01-23T05:06:47.097Z,84.50
2019-01-23T05:07:47.128Z,84.71
2019-01-23T05:08:47.078Z,84.17
2019-01-23T05:09:47.068Z,83.75
2019-01-23T05:10:47.087Z,84.17
2019-01-23T05:11:47.097Z,84.92
2019-01-23T05:12:47.038Z,85.14
2019-01-23T05:13:47.041Z,84.50
2019-01-23T05:14:47.025Z,85.25
2019-01-23T05:15:47.014Z,85.25
2019-01-23T05:16:46.993Z,85.35
2019-01-23T05:17:47.062Z,85.14
2019-01-23T05:18:47.008Z,84.71
2019-01-23T05:19:46.975Z,84.71
2019-01-23T05:20:46.952Z,84.71
2019-01-23T05:21:46.972Z,85.14
2019-01-23T05:22:46.961Z,85.53
2019-01-23T05:23:46.934Z,85.42
2019-01-23T05:24:46.896Z,85.42
2019-01-23T05:25:46.902Z,85.42
2019-01-23T05:26:46.884Z,85.64
2019-01-23T05:27:46.877Z,85.21
2019-01-23T05:28:46.942Z,84.67
2019-01-23T05:29:54.611Z,84.67
2019-01-23T05:30:47.841Z,84.82
2019-01-23T05:31:46.820Z,84.61
2019-01-23T05:32:46.832Z,84.56
2019-01-23T05:33:46.818Z,85.31
2019-01-23T05:34:46.832Z,85.85
2019-01-23T05:35:46.846Z,86.07
2019-01-23T05:36:46.790Z,86.28
2019-01-23T05:37:46.770Z,86.82
2019-01-23T05:38:46.811Z,87.74
2019-01-23T05:39:46.763Z,87.74
2019-01-23T05:40:46.747Z,88.02
2019-01-23T05:41:46.742Z,87.59
2019-01-23T05:42:46.719Z,87.70
2019-01-23T05:43:46.713Z,88.20
2019-01-23T05:44:46.746Z,87.23
2019-01-23T05:45:46.704Z,86.74
2019-01-23T05:46:46.746Z,86.52
2019-01-23T05:47:46.653Z,86.59
2019-01-23T05:48:46.655Z,87.02
2019-01-23T05:49:46.639Z,87.13
2019-01-23T05:50:46.682Z,86.49
2019-01-23T05:51:46.624Z,86.70
2019-01-23T05:52:46.643Z,86.38
2019-01-23T05:53:46.995Z,85.74
2019-01-23T05:54:46.623Z,85.20
2019-01-23T05:55:46.603Z,85.52
2019-01-23T05:56:46.568Z,84.81
2019-01-23T05:57:46.575Z,84.24
2019-01-23T05:58:46.587Z,84.70
2019-01-23T05:59:46.568Z,84.60
2019-01-23T06:00:46.547Z,85.13
2019-01-23T06:01:46.546Z,85.13
2019-01-23T06:02:46.543Z,85.56
2019-01-23T06:03:46.492Z,85.35
2019-01-23T06:04:46.534Z,84.49
2019-01-23T06:05:46.470Z,84.60
2019-01-23T06:06:46.502Z,85.24
2019-01-23T06:07:46.455Z,84.74
2019-01-23T06:08:46.500Z,85.28
2019-01-23T06:09:46.452Z,85.17
2019-01-23T06:10:46.419Z,85.38
2019-01-23T06:11:46.412Z,85.92
2019-01-23T06:12:46.435Z,85.82
2019-01-23T06:13:46.413Z,85.71
2019-01-23T06:14:46.400Z,86.46
2019-01-23T06:15:46.368Z,87.20
2019-01-23T06:16:46.355Z,86.56
2019-01-23T06:17:46.396Z,86.13
2019-01-23T06:18:46.351Z,85.60
2019-01-23T06:19:46.328Z,85.38
2019-01-23T06:20:46.361Z,85.60
2019-01-23T06:21:46.343Z,85.10
2019-01-23T06:22:46.288Z,85.31
2019-01-23T06:23:46.311Z,85.21
2019-01-23T06:24:46.268Z,85.21
2019-01-23T06:25:46.275Z,85.10
2019-01-23T06:26:46.262Z,86.07
2019-01-23T06:27:46.276Z,86.39
2019-01-23T06:28:46.262Z,86.39
2019-01-23T06:29:46.499Z,86.28
2019-01-23T06:30:46.223Z,86.17
2019-01-23T06:31:46.233Z,86.60
2019-01-23T06:32:46.204Z,87.99
2019-01-23T06:33:46.219Z,88.10
2019-01-23T06:34:46.175Z,87.85
2019-01-23T06:35:46.216Z,88.28
2019-01-23T06:36:46.153Z,88.06
2019-01-23T06:37:46.129Z,86.46
2019-01-23T06:38:46.169Z,86.56
2019-01-23T06:39:46.106Z,87.13
2019-01-23T06:40:46.098Z,87.10
2019-01-23T06:41:46.121Z,88.10
2019-01-23T06:42:46.093Z,86.49
2019-01-23T06:43:46.075Z,87.03
2019-01-23T06:44:46.075Z,86.92
2019-01-23T06:45:46.052Z,86.82
2019-01-23T06:46:46.059Z,86.92
2019-01-23T06:47:46.067Z,86.60
2019-01-23T06:48:46.021Z,86.60
2019-01-23T06:49:46.045Z,87.03
2019-01-23T06:50:46.010Z,87.24
2019-01-23T06:51:46.019Z,87.39
2019-01-23T06:52:45.977Z,87.18
2019-01-23T06:53:45.997Z,87.18
2019-01-23T06:54:45.982Z,87.71
2019-01-23T06:55:45.955Z,87.67
2019-01-23T06:56:45.939Z,89.28
2019-01-23T06:57:45.962Z,89.67
2019-01-23T06:58:45.941Z,89.60
2019-01-23T06:59:45.900Z,89.03
2019-01-23T07:00:45.896Z,89.03
2019-01-23T07:01:45.914Z,88.81
2019-01-23T07:02:45.883Z,89.34
2019-01-23T07:03:45.905Z,88.81
2019-01-23T07:04:45.906Z,89.03
2019-01-23T07:05:45.900Z,88.70
2019-01-23T07:06:45.830Z,88.49
2019-01-23T07:07:45.813Z,88.59
2019-01-23T07:08:45.853Z,88.17
2019-01-23T07:09:45.813Z,87.92
2019-01-23T07:10:45.830Z,87.85
2019-01-23T07:11:45.771Z,88.06
2019-01-23T07:12:45.767Z,88.28
2019-01-23T07:13:45.796Z,87.74
2019-01-23T07:14:45.779Z,87.67
2019-01-23T07:15:45.749Z,87.78
2019-01-23T07:16:45.725Z,87.88
2019-01-23T07:17:45.704Z,87.99
2019-01-23T07:18:45.967Z,88.10
2019-01-23T07:19:45.677Z,88.42
2019-01-23T07:20:45.700Z,89.42
2019-01-23T07:21:45.668Z,89.32
2019-01-23T07:22:45.668Z,89.17
2019-01-23T07:23:45.646Z,88.85
2019-01-23T07:24:45.635Z,88.89
2019-01-23T07:25:45.674Z,88.85
2019-01-23T07:26:45.622Z,88.95
2019-01-23T07:27:45.603Z,89.60
2019-01-23T07:28:49.340Z,89.70
2019-01-23T07:29:45.588Z,89.81
2019-01-23T07:30:45.605Z,89.49
2019-01-23T07:31:45.577Z,89.77
2019-01-23T07:32:45.547Z,89.70
2019-01-23T07:33:45.540Z,89.92
2019-01-23T07:34:45.531Z,89.70
2019-01-23T07:35:45.525Z,89.88
2019-01-23T07:36:45.533Z,89.77
2019-01-23T07:37:45.515Z,89.77
2019-01-23T07:38:45.519Z,89.98
2019-01-23T07:39:45.473Z,89.56
2019-01-23T07:40:45.476Z,88.92
2019-01-23T07:41:45.474Z,89.13
2019-01-23T07:42:45.455Z,89.13
2019-01-23T07:43:45.458Z,88.92
2019-01-23T07:44:45.426Z,89.03
2019-01-23T07:45:45.433Z,88.98
2019-01-23T07:46:45.440Z,88.77
2019-01-23T07:47:45.408Z,88.87
2019-01-23T07:48:45.387Z,88.56
2019-01-23T07:49:45.410Z,89.26
2019-01-23T07:50:45.363Z,89.31
2019-01-23T07:51:45.354Z,89.16
2019-01-23T07:52:45.325Z,89.37
2019-01-23T07:53:45.343Z,88.73
2019-01-23T07:54:45.358Z,89.05
2019-01-23T07:55:45.303Z,88.84
2019-01-23T07:56:45.301Z,89.76
2019-01-23T07:57:45.282Z,89.51
2019-01-23T07:58:45.298Z,89.83
2019-01-23T07:59:45.253Z,89.72
2019-01-23T08:00:45.270Z,89.36
2019-01-23T08:01:45.260Z,88.72
2019-01-23T08:02:45.234Z,89.21
2019-01-23T08:03:45.231Z,88.68
2019-01-23T08:04:45.234Z,88.89
2019-01-23T08:05:45.193Z,89.21
2019-01-23T08:06:45.202Z,88.32
2019-01-23T08:07:45.216Z,88.85
2019-01-23T08:08:45.160Z,88.39
2019-01-23T08:09:45.216Z,88.21
2019-01-23T08:10:45.179Z,87.96
2019-01-23T08:11:45.137Z,87.43
2019-01-23T08:12:45.146Z,87.64
2019-01-23T08:13:45.168Z,87.38
2019-01-23T08:14:45.104Z,87.32
2019-01-23T08:15:45.083Z,86.57
2019-01-23T08:16:45.130Z,86.15
2019-01-23T08:17:46.074Z,86.11
2019-01-23T08:18:45.071Z,86.54
2019-01-23T08:19:45.072Z,86.54
2019-01-23T08:20:45.083Z,86.00
2019-01-23T08:21:45.064Z,86.11
2019-01-23T08:22:45.016Z,85.89
2019-01-23T08:23:45.006Z,86.11
2019-01-23T08:24:45.022Z,86.11
2019-01-23T08:25:45.018Z,85.36
2019-01-23T08:26:45.032Z,85.43
2019-01-23T08:27:44.956Z,85.43
2019-01-23T08:28:44.967Z,85.22
2019-01-23T08:29:44.944Z,84.61
2019-01-23T08:30:44.948Z,84.94
2019-01-23T08:31:44.921Z,84.69
2019-01-23T08:32:44.936Z,84.47
2019-01-23T08:33:44.919Z,84.26
2019-01-23T08:34:44.907Z,84.05
2019-01-23T08:35:44.890Z,84.69
2019-01-23T08:36:45.474Z,84.15
2019-01-23T08:37:44.904Z,83.73
2019-01-23T08:38:44.853Z,83.73
2019-01-23T08:39:44.825Z,84.05
2019-01-23T08:40:44.840Z,83.69
2019-01-23T08:41:44.829Z,83.51
2019-01-23T08:42:44.800Z,83.73
2019-01-23T08:43:44.872Z,83.73
2019-01-23T08:44:44.833Z,83.83
2019-01-23T08:45:44.782Z,83.94
2019-01-23T08:46:44.765Z,83.69
2019-01-23T08:47:44.765Z,82.87
2019-01-23T08:48:44.732Z,83.51
2019-01-23T08:49:45.651Z,83.83
2019-01-23T08:50:44.756Z,83.51
2019-01-23T08:51:44.739Z,83.62
2019-01-23T08:52:44.698Z,83.40
2019-01-23T08:53:44.749Z,83.48
2019-01-23T08:54:44.747Z,83.48
2019-01-23T08:55:44.682Z,83.26
2019-01-23T08:56:44.666Z,82.98
2019-01-23T08:57:44.682Z,82.98
2019-01-23T08:58:44.641Z,83.09
2019-01-23T08:59:44.689Z,83.19
2019-01-23T09:00:45.881Z,83.58
2019-01-23T09:01:44.622Z,83.58
2019-01-23T09:02:44.627Z,83.37
2019-01-23T09:03:44.586Z,83.80
2019-01-23T09:04:44.619Z,86.03
2019-01-23T09:05:44.563Z,84.11
2019-01-23T09:06:45.567Z,83.48
2019-01-23T09:07:44.567Z,82.09
2019-01-23T09:08:44.538Z,82.09
2019-01-23T09:09:44.562Z,82.20
2019-01-23T09:10:44.533Z,82.20
2019-01-23T09:11:44.492Z,82.09
2019-01-23T09:12:46.117Z,82.20
2019-01-23T09:13:44.465Z,82.20
2019-01-23T09:14:44.480Z,81.45
2019-01-23T09:15:44.506Z,81.98
2019-01-23T09:16:44.470Z,81.56
2019-01-23T09:17:44.420Z,81.88
2019-01-23T09:18:44.444Z,81.67
2019-01-23T09:19:44.410Z,81.56
2019-01-23T09:20:44.401Z,81.77
2019-01-23T09:21:44.389Z,81.13
2019-01-23T09:22:44.394Z,81.13
2019-01-23T09:23:44.363Z,81.24
2019-01-23T09:24:44.451Z,81.13
2019-01-23T09:25:49.727Z,81.20
2019-01-23T09:26:44.364Z,80.60
2019-01-23T09:27:51.111Z,80.71
2019-01-23T09:28:44.323Z,81.02
2019-01-23T09:29:44.336Z,81.02
2019-01-23T09:30:45.315Z,81.35
2019-01-23T09:31:44.276Z,80.71
2019-01-23T09:32:44.279Z,81.45
2019-01-23T09:33:44.262Z,81.67
2019-01-23T09:34:44.267Z,81.56
2019-01-23T09:35:44.245Z,81.45
2019-01-23T09:36:44.238Z,81.60
2019-01-23T09:37:44.241Z,82.13
2019-01-23T09:38:44.210Z,82.13
2019-01-23T09:39:44.191Z,82.09
2019-01-23T09:40:44.209Z,82.20
2019-01-23T09:41:44.171Z,81.88
2019-01-23T09:42:44.162Z,81.77
2019-01-23T09:43:44.150Z,81.98
2019-01-23T09:44:44.160Z,82.31
2019-01-23T09:45:44.139Z,81.98
2019-01-23T09:46:44.161Z,81.84
2019-01-23T09:47:44.093Z,83.12
2019-01-23T09:48:44.081Z,83.01
2019-01-23T09:49:44.086Z,83.08
2019-01-23T09:50:44.086Z,83.19
2019-01-23T09:51:44.108Z,81.06
2019-01-23T09:52:44.102Z,80.78
2019-01-23T09:53:44.049Z,81.16
2019-01-23T09:54:44.042Z,80.78
2019-01-23T09:55:44.053Z,80.57
2019-01-23T09:56:44.010Z,80.88
2019-01-23T09:57:58.166Z,81.27
2019-01-23T09:58:43.993Z,80.95
2019-01-23T09:59:43.984Z,80.63
2019-01-23T10:00:43.996Z,80.63
2019-01-23T10:01:43.963Z,80.95
2019-01-23T10:02:43.963Z,80.85
2019-01-23T10:03:43.961Z,79.68
2019-01-23T10:04:43.955Z,79.89
2019-01-23T10:05:43.971Z,80.32
2019-01-23T10:06:43.892Z,79.89
2019-01-23T10:07:43.884Z,79.89
2019-01-23T10:08:43.952Z,79.22
2019-01-23T10:09:43.862Z,78.79
2019-01-23T10:10:43.866Z,78.47
2019-01-23T10:11:43.855Z,79.08
2019-01-23T10:12:43.856Z,77.94
2019-01-23T10:13:43.828Z,77.20
2019-01-23T10:14:43.866Z,77.94
2019-01-23T10:15:43.794Z,78.97
2019-01-23T10:16:43.807Z,77.91
2019-01-23T10:17:43.768Z,78.01
2019-01-23T10:18:43.763Z,77.91
2019-01-23T10:19:43.767Z,77.59
2019-01-23T10:20:43.766Z,77.37
2019-01-23T10:21:43.739Z,77.06
2019-01-23T10:22:43.734Z,77.27
2019-01-23T10:23:43.707Z,77.48
2019-01-23T10:24:43.705Z,76.81
2019-01-23T10:25:43.724Z,77.45
2019-01-23T10:26:43.705Z,77.12
2019-01-23T10:27:43.672Z,76.45
2019-01-23T10:28:43.652Z,76.25
2019-01-23T10:29:43.645Z,76.35
2019-01-23T10:30:43.636Z,76.03
2019-01-23T10:31:43.651Z,76.25
2019-01-23T10:32:43.655Z,76.14
2019-01-23T10:33:43.612Z,75.92
2019-01-23T10:34:43.609Z,76.14
2019-01-23T10:35:43.584Z,76.45
2019-01-23T10:36:43.606Z,76.45
2019-01-23T10:37:43.571Z,75.50
2019-01-23T10:38:43.575Z,75.18
2019-01-23T10:39:43.549Z,75.92
2019-01-23T10:40:43.551Z,75.99
2019-01-23T10:41:44.510Z,75.25
2019-01-23T10:42:43.504Z,76.10
2019-01-23T10:43:43.505Z,75.68
2019-01-23T10:44:43.494Z,75.68
2019-01-23T10:45:43.481Z,75.89
2019-01-23T10:46:43.486Z,76.10
2019-01-23T10:47:43.495Z,75.89
2019-01-23T10:48:43.442Z,75.54
2019-01-23T10:49:43.433Z,75.75
2019-01-23T10:50:43.457Z,74.90
2019-01-23T10:51:43.407Z,74.69
2019-01-23T10:52:43.407Z,74.48
2019-01-23T10:53:43.422Z,75.22
2019-01-23T10:54:43.433Z,74.79
2019-01-23T10:55:43.376Z,75.12
2019-01-23T10:56:43.356Z,74.90
2019-01-23T10:57:43.409Z,74.58
2019-01-23T10:58:43.336Z,74.16
2019-01-23T10:59:43.385Z,74.48
2019-01-23T11:00:43.332Z,74.48
2019-01-23T11:01:43.318Z,74.55
2019-01-23T11:02:43.291Z,74.76
2019-01-23T11:03:43.288Z,74.87
2019-01-23T11:04:43.291Z,74.66
2019-01-23T11:05:43.283Z,74.87
2019-01-23T11:06:43.257Z,73.70
2019-01-23T11:07:43.324Z,74.02
2019-01-23T11:08:43.297Z,74.13
2019-01-23T11:09:43.218Z,75.29
2019-01-23T11:10:43.243Z,74.52
2019-01-23T11:11:43.210Z,75.15
2019-01-23T11:12:43.195Z,74.94
2019-01-23T11:13:43.211Z,74.09
2019-01-23T11:14:43.198Z,74.48
2019-01-23T11:15:43.157Z,73.85
2019-01-23T11:16:43.214Z,73.10
2019-01-23T11:17:43.125Z,74.69
2019-01-23T11:18:43.135Z,73.74
2019-01-23T11:19:43.122Z,73.53
2019-01-23T11:20:43.100Z,73.43
2019-01-23T11:21:43.088Z,73.32
2019-01-23T11:22:43.121Z,73.00
2019-01-23T11:23:43.065Z,73.32
2019-01-23T11:24:43.066Z,73.39
2019-01-23T11:25:43.072Z,72.61
2019-01-23T11:26:43.089Z,71.88
2019-01-23T11:27:43.019Z,71.88
2019-01-23T11:28:43.037Z,71.91
2019-01-23T11:29:43.007Z,71.88
2019-01-23T11:30:43.004Z,71.73
2019-01-23T11:31:42.997Z,71.73
2019-01-23T11:32:42.976Z,72.55
2019-01-23T11:33:43.015Z,71.88
2019-01-23T11:34:42.997Z,73.25
2019-01-23T11:35:42.943Z,72.49
2019-01-23T11:36:42.950Z,69.53
2019-01-23T11:37:42.926Z,69.42
2019-01-23T11:38:42.905Z,68.79
2019-01-23T11:39:42.900Z,69.42
2019-01-23T11:40:42.897Z,69.71
2019-01-23T11:41:42.888Z,68.37
2019-01-23T11:42:42.862Z,67.63
2019-01-23T11:43:42.852Z,67.73
2019-01-23T11:44:42.869Z,69.18
2019-01-23T11:45:42.871Z,67.80
2019-01-23T11:46:42.819Z,67.80
2019-01-23T11:47:42.823Z,69.81
2019-01-23T11:48:42.804Z,69.15
2019-01-23T11:49:42.783Z,67.99
2019-01-23T11:50:42.814Z,69.25
2019-01-23T11:51:42.791Z,67.88
2019-01-23T11:52:42.744Z,67.60
2019-01-23T11:53:42.743Z,68.05
2019-01-23T11:54:42.734Z,68.57
2019-01-23T11:55:42.717Z,67.94
2019-01-23T11:56:42.743Z,68.68
2019-01-23T11:57:42.702Z,69.07
2019-01-23T11:58:42.683Z,70.45
2019-01-23T11:59:42.674Z,69.99
2019-01-23T12:00:42.666Z,69.36
2019-01-23T12:01:42.665Z,67.14
2019-01-23T12:02:42.698Z,67.88
2019-01-23T12:03:42.630Z,67.67
2019-01-23T12:04:42.624Z,66.93
2019-01-23T12:05:42.621Z,68.06
2019-01-23T12:06:42.597Z,67.74
2019-01-23T12:07:42.589Z,67.82
2019-01-23T12:08:42.646Z,66.48
2019-01-23T12:09:42.566Z,66.69
2019-01-23T12:10:42.555Z,66.90
2019-01-23T12:11:42.543Z,66.37
2019-01-23T12:12:42.533Z,66.87
2019-01-23T12:13:42.520Z,67.93
2019-01-23T12:14:42.550Z,67.26
2019-01-23T12:15:42.520Z,65.36
2019-01-23T12:16:42.483Z,65.75
2019-01-23T12:17:42.489Z,67.13
2019-01-23T12:18:42.466Z,64.81
2019-01-23T12:19:42.457Z,65.44
2019-01-23T12:20:42.475Z,68.36
2019-01-23T12:21:42.449Z,66.56
2019-01-23T12:22:42.425Z,66.25
2019-01-23T12:23:42.422Z,64.67
2019-01-23T12:24:42.397Z,64.39
2019-01-23T12:25:42.384Z,64.07
2019-01-23T12:26:42.423Z,65.05
2019-01-23T12:27:42.396Z,66.60
2019-01-23T12:28:42.354Z,66.91
2019-01-23T12:29:42.347Z,65.41
2019-01-23T12:30:42.336Z,65.33
2019-01-23T12:31:42.322Z,65.52
2019-01-23T12:32:42.331Z,66.36
2019-01-23T12:33:42.320Z,64.88
2019-01-23T12:34:42.991Z,64.17
2019-01-23T12:35:42.283Z,65.23
2019-01-23T12:36:42.275Z,64.70
2019-01-23T12:37:42.265Z,65.01
2019-01-23T12:38:42.243Z,63.99
2019-01-23T12:39:42.239Z,64.55
2019-01-23T12:40:42.249Z,65.81
2019-01-23T12:41:42.216Z,67.02
2019-01-23T12:42:42.229Z,68.68
2019-01-23T12:43:42.192Z,65.83
2019-01-23T12:44:42.989Z,64.57
2019-01-23T12:45:42.178Z,65.09
2019-01-23T12:46:43.156Z,64.54
2019-01-23T12:47:42.146Z,63.62
2019-01-23T12:48:42.173Z,64.04
2019-01-23T12:49:42.118Z,64.07
2019-01-23T12:50:42.110Z,65.41
2019-01-23T12:51:42.115Z,64.04
2019-01-23T12:52:42.093Z,66.67